createdAt,value
2022-09-12T00:02:13.861Z,14.50
2022-09-12T00:04:40.415Z,14.49
2022-09-12T00:07:06.927Z,14.51
2022-09-12T00:09:33.409Z,14.49
2022-09-12T00:11:59.907Z,14.47
2022-09-12T00:14:26.436Z,14.43
2022-09-12T00:16:53.071Z,14.42
2022-09-12T00:19:19.550Z,14.40
2022-09-12T00:21:46.026Z,14.36
2022-09-12T00:24:12.495Z,14.32
2022-09-12T00:26:39.227Z,14.31
2022-09-12T00:29:05.812Z,14.23
2022-09-12T00:31:32.594Z,14.15
2022-09-12T00:34:00.821Z,14.08
2022-09-12T00:36:28.434Z,14.04
2022-09-12T00:38:55.112Z,14.01
2022-09-12T00:41:41.915Z,13.99
2022-09-12T00:44:23.629Z,13.98
2022-09-12T00:47:02.402Z,13.97
2022-09-12T00:49:43.855Z,13.96
2022-09-12T00:52:25.469Z,13.95
2022-09-12T00:55:17.014Z,13.93
2022-09-12T00:57:53.418Z,13.94
2022-09-12T01:00:23.274Z,13.95
2022-09-12T01:02:54.439Z,13.93
2022-09-12T01:05:23.377Z,13.87
2022-09-12T01:07:50.847Z,13.90
2022-09-12T01:10:18.887Z,13.89
2022-09-12T01:12:46.455Z,13.86
2022-09-12T01:15:13.004Z,13.85
2022-09-12T01:17:59.007Z,13.88
2022-09-12T01:20:43.392Z,13.85
2022-09-12T01:23:40.541Z,13.79
2022-09-12T01:26:31.454Z,13.75
2022-09-12T01:29:25.110Z,13.69
2022-09-12T01:31:54.417Z,13.71
2022-09-12T01:34:38.362Z,13.68
2022-09-12T01:37:10.234Z,13.62
2022-09-12T01:39:45.556Z,13.62
2022-09-12T01:42:33.632Z,13.59
2022-09-12T01:45:11.983Z,13.43
2022-09-12T01:47:47.644Z,13.53
2022-09-12T01:50:19.385Z,13.52
2022-09-12T01:53:03.826Z,13.49
2022-09-12T01:55:36.067Z,13.39
2022-09-12T01:58:05.527Z,13.47
2022-09-12T02:00:35.735Z,13.45
2022-09-12T02:03:10.342Z,13.44
2022-09-12T02:05:46.566Z,13.43
2022-09-12T02:08:34.830Z,13.41
2022-09-12T02:11:06.548Z,13.42
2022-09-12T02:13:40.847Z,13.35
2022-09-12T02:16:15.953Z,13.33
2022-09-12T02:18:47.100Z,13.31
2022-09-12T02:21:14.041Z,13.25
2022-09-12T02:23:46.197Z,13.25
2022-09-12T02:26:23.583Z,13.20
2022-09-12T02:28:52.263Z,13.18
2022-09-12T02:31:29.933Z,13.18
2022-09-12T02:34:27.965Z,13.15
2022-09-12T02:37:25.631Z,13.11
2022-09-12T02:39:55.045Z,13.12
2022-09-12T02:42:22.493Z,13.12
2022-09-12T02:44:49.849Z,13.12
2022-09-12T02:47:28.209Z,13.09
2022-09-12T02:49:56.275Z,13.08
2022-09-12T02:52:22.996Z,13.06
2022-09-12T02:54:50.344Z,13.05
2022-09-12T02:57:22.587Z,13.02
2022-09-12T02:59:53.151Z,12.88
2022-09-12T03:02:45.566Z,12.95
2022-09-12T03:05:27.014Z,12.94
2022-09-12T03:07:59.177Z,12.94
2022-09-12T03:10:44.442Z,12.80
2022-09-12T03:13:16.878Z,12.83
2022-09-12T03:15:58.751Z,12.79
2022-09-12T03:18:45.997Z,12.77
2022-09-12T03:21:21.503Z,12.75
2022-09-12T03:24:16.080Z,12.73
2022-09-12T03:27:38.382Z,12.68
2022-09-12T03:30:06.183Z,12.67
2022-09-12T03:32:47.884Z,12.67
2022-09-12T03:35:19.755Z,12.66
2022-09-12T03:37:50.578Z,12.65
2022-09-12T03:40:17.148Z,12.66
2022-09-12T03:42:43.650Z,12.64
2022-09-12T03:45:10.776Z,12.60
2022-09-12T03:47:37.551Z,12.60
2022-09-12T03:50:04.626Z,12.58
2022-09-12T03:52:31.110Z,12.58
2022-09-12T03:54:57.614Z,12.56
2022-09-12T03:57:24.054Z,12.52
2022-09-12T03:59:50.693Z,12.49
2022-09-12T04:02:17.651Z,12.46
2022-09-12T04:04:44.886Z,12.42
2022-09-12T04:07:11.774Z,12.39
2022-09-12T04:09:38.592Z,12.37
2022-09-12T04:12:05.655Z,12.36
2022-09-12T04:14:32.276Z,12.34
2022-09-12T04:16:58.771Z,12.32
2022-09-12T04:19:26.556Z,12.30
2022-09-12T04:21:53.138Z,12.25
2022-09-12T04:24:19.660Z,12.22
2022-09-12T04:26:46.259Z,12.22
2022-09-12T04:29:13.130Z,12.22
2022-09-12T04:31:39.627Z,12.22
2022-09-12T04:34:07.104Z,12.21
2022-09-12T04:36:34.380Z,12.20
2022-09-12T04:39:02.145Z,12.19
2022-09-12T04:41:31.327Z,12.18
2022-09-12T04:44:04.170Z,12.20
2022-09-12T04:46:33.445Z,12.17
2022-09-12T04:49:00.059Z,12.15
2022-09-12T04:51:29.860Z,12.13
2022-09-12T04:54:02.655Z,12.14
2022-09-12T04:56:29.908Z,12.12
2022-09-12T04:58:58.215Z,12.12
2022-09-12T05:01:24.873Z,12.12
2022-09-12T05:03:51.832Z,12.13
2022-09-12T05:06:23.991Z,12.16
2022-09-12T05:08:52.110Z,12.18
2022-09-12T05:11:25.569Z,12.19
2022-09-12T05:13:57.367Z,12.25
2022-09-12T05:16:25.828Z,12.29
2022-09-12T05:18:52.594Z,12.30
2022-09-12T05:21:21.195Z,12.31
2022-09-12T05:23:51.529Z,12.34
2022-09-12T05:26:20.487Z,12.37
2022-09-12T05:28:48.549Z,12.32
2022-09-12T05:31:26.760Z,12.46
2022-09-12T05:33:55.028Z,12.52
2022-09-12T05:36:29.530Z,12.57
2022-09-12T05:38:56.987Z,12.82
2022-09-12T05:41:26.083Z,13.34
2022-09-12T05:43:54.707Z,13.97
2022-09-12T05:46:24.147Z,14.53
2022-09-12T05:48:55.706Z,15.02
2022-09-12T05:51:28.071Z,15.56
2022-09-12T05:53:56.861Z,16.14
2022-09-12T05:56:25.727Z,16.22
2022-09-12T05:58:57.537Z,16.67
2022-09-12T06:01:25.084Z,17.13
2022-09-12T06:03:54.270Z,17.71
2022-09-12T06:06:22.994Z,18.15
2022-09-12T06:08:52.141Z,18.51
2022-09-12T06:11:21.175Z,18.78
2022-09-12T06:13:47.828Z,18.94
2022-09-12T06:16:18.371Z,19.05
2022-09-12T06:18:49.218Z,19.15
2022-09-12T06:21:16.139Z,19.20
2022-09-12T06:23:43.081Z,19.44
2022-09-12T06:26:10.975Z,19.67
2022-09-12T06:28:39.690Z,19.93
2022-09-12T06:31:12.502Z,20.29
2022-09-12T06:33:42.009Z,20.42
2022-09-12T06:36:13.925Z,20.56
2022-09-12T06:38:40.701Z,20.48
2022-09-12T06:41:11.359Z,20.55
2022-09-12T06:43:38.939Z,20.69
2022-09-12T06:46:06.510Z,20.91
2022-09-12T06:48:33.280Z,21.02
2022-09-12T06:51:02.153Z,21.12
2022-09-12T06:53:30.132Z,21.21
2022-09-12T06:56:00.507Z,21.53
2022-09-12T06:58:28.870Z,21.88
2022-09-12T07:01:05.959Z,22.07
2022-09-12T07:03:32.938Z,22.22
2022-09-12T07:06:13.396Z,22.42
2022-09-12T07:08:40.924Z,22.36
2022-09-12T07:11:14.584Z,22.29
2022-09-12T07:13:42.720Z,22.28
2022-09-12T07:16:10.593Z,22.05
2022-09-12T07:18:38.366Z,22.21
2022-09-12T07:21:15.190Z,22.33
2022-09-12T07:23:42.811Z,22.30
2022-09-12T07:26:14.467Z,22.30
2022-09-12T07:28:41.247Z,22.02
2022-09-12T07:31:13.411Z,21.89
2022-09-12T07:33:41.022Z,22.02
2022-09-12T07:36:11.796Z,22.12
2022-09-12T07:38:39.449Z,22.25
2022-09-12T07:41:17.339Z,22.45
2022-09-12T07:43:44.096Z,22.64
2022-09-12T07:46:10.786Z,22.71
2022-09-12T07:48:38.287Z,23.09
2022-09-12T07:51:08.151Z,23.25
2022-09-12T07:53:37.019Z,23.37
2022-09-12T07:56:05.502Z,23.52
2022-09-12T07:58:33.182Z,23.58
2022-09-12T08:01:03.136Z,23.68
2022-09-12T08:03:29.725Z,23.83
2022-09-12T08:06:03.373Z,23.94
2022-09-12T08:08:29.858Z,23.97
2022-09-12T08:11:00.769Z,24.01
2022-09-12T08:13:29.181Z,24.29
2022-09-12T08:16:04.932Z,24.31
2022-09-12T08:18:32.754Z,24.37
2022-09-12T08:21:00.727Z,24.50
2022-09-12T08:23:28.703Z,24.53
2022-09-12T08:25:56.897Z,24.74
2022-09-12T08:28:25.257Z,24.85
2022-09-12T08:30:56.166Z,25.12
2022-09-12T08:33:22.695Z,25.07
2022-09-12T08:35:49.141Z,25.07
2022-09-12T08:38:15.643Z,25.15
2022-09-12T08:41:08.266Z,25.30
2022-09-12T08:43:56.080Z,25.43
2022-09-12T08:46:32.059Z,25.51
2022-09-12T08:49:01.255Z,25.60
2022-09-12T08:51:29.362Z,25.63
2022-09-12T08:53:57.363Z,25.55
2022-09-12T08:56:31.474Z,25.76
2022-09-12T08:58:58.788Z,25.74
2022-09-12T09:01:35.751Z,25.76
2022-09-12T09:04:18.351Z,25.84
2022-09-12T09:06:59.939Z,25.92
2022-09-12T09:09:59.184Z,25.86
2022-09-12T09:12:34.856Z,25.87
2022-09-12T09:15:14.798Z,25.84
2022-09-12T09:18:01.825Z,25.89
2022-09-12T09:20:45.420Z,26.12
2022-09-12T09:23:28.508Z,26.29
2022-09-12T09:25:59.513Z,26.20
2022-09-12T09:28:47.549Z,26.35
2022-09-12T09:31:19.799Z,26.35
2022-09-12T09:33:52.103Z,26.53
2022-09-12T09:36:27.419Z,26.69
2022-09-12T09:39:16.251Z,26.77
2022-09-12T09:41:56.489Z,26.63
2022-09-12T09:44:23.487Z,26.71
2022-09-12T09:46:54.288Z,26.72
2022-09-12T09:49:21.794Z,26.68
2022-09-12T09:51:48.564Z,26.57
2022-09-12T09:54:25.462Z,26.69
2022-09-12T09:56:52.447Z,26.72
2022-09-12T09:59:26.612Z,26.77
2022-09-12T10:01:55.699Z,26.69
2022-09-12T10:04:24.671Z,26.76
2022-09-12T10:06:53.034Z,26.63
2022-09-12T10:09:19.495Z,26.70
2022-09-12T10:11:48.018Z,26.90
2022-09-12T10:14:36.783Z,27.04
2022-09-12T10:17:25.837Z,26.98
2022-09-12T10:20:10.498Z,26.97
2022-09-12T10:22:39.995Z,26.86
2022-09-12T10:25:13.236Z,26.89
2022-09-12T10:27:42.105Z,27.07
2022-09-12T10:30:14.807Z,27.12
2022-09-12T10:32:45.900Z,27.00
2022-09-12T10:35:20.537Z,26.93
2022-09-12T10:37:57.216Z,27.10
2022-09-12T10:40:27.465Z,27.11
2022-09-12T10:42:59.275Z,27.17
2022-09-12T10:45:29.451Z,27.26
2022-09-12T10:47:59.213Z,27.26
2022-09-12T10:50:28.718Z,27.30
2022-09-12T10:53:12.904Z,27.11
2022-09-12T10:55:42.819Z,27.33
2022-09-12T10:58:21.655Z,27.30
2022-09-12T11:00:55.171Z,27.35
2022-09-12T11:03:33.002Z,27.52
2022-09-12T11:06:01.476Z,27.77
2022-09-12T11:08:50.709Z,27.84
2022-09-12T11:11:26.241Z,27.86
2022-09-12T11:14:06.208Z,27.72
2022-09-12T11:16:49.151Z,27.78
2022-09-12T11:19:33.641Z,27.76
2022-09-12T11:22:16.524Z,27.81
2022-09-12T11:24:43.007Z,27.85
2022-09-12T11:27:33.528Z,28.02
2022-09-12T11:30:09.256Z,27.91
2022-09-12T11:33:00.091Z,27.88
2022-09-12T11:35:32.741Z,27.86
2022-09-12T11:38:20.179Z,28.02
2022-09-12T11:40:55.702Z,28.18
2022-09-12T11:43:35.702Z,28.22
2022-09-12T11:46:29.514Z,28.08
2022-09-12T11:49:13.618Z,28.11
2022-09-12T11:51:49.881Z,28.10
2022-09-12T11:54:31.265Z,28.02
2022-09-12T11:57:20.623Z,28.00
2022-09-12T12:00:02.179Z,27.90
2022-09-12T12:02:40.191Z,27.85
2022-09-12T12:05:16.263Z,27.82
2022-09-12T12:07:52.432Z,27.97
2022-09-12T12:10:40.136Z,27.88
2022-09-12T12:13:15.386Z,27.80
2022-09-12T12:15:48.553Z,27.82
2022-09-12T12:18:23.961Z,27.76
2022-09-12T12:20:51.355Z,27.89
2022-09-12T12:23:32.433Z,27.74
2022-09-12T12:26:04.479Z,27.74
2022-09-12T12:28:44.249Z,27.73
2022-09-12T12:31:11.349Z,27.85
2022-09-12T12:33:37.813Z,27.98
2022-09-12T12:36:08.271Z,28.06
2022-09-12T12:38:36.929Z,27.92
2022-09-12T12:41:18.718Z,27.82
2022-09-12T12:43:46.141Z,27.82
2022-09-12T12:46:14.683Z,27.81
2022-09-12T12:49:07.177Z,27.91
2022-09-12T12:51:36.529Z,27.95
2022-09-12T12:54:45.745Z,28.06
2022-09-12T12:57:32.008Z,28.16
2022-09-12T13:00:03.802Z,28.29
2022-09-12T13:02:41.089Z,28.06
2022-09-12T13:05:19.846Z,27.76
2022-09-12T13:07:48.236Z,27.70
2022-09-12T13:10:28.805Z,27.79
2022-09-12T13:12:59.679Z,27.85
2022-09-12T13:15:30.024Z,28.22
2022-09-12T13:18:02.025Z,28.40
2022-09-12T13:20:31.674Z,28.50
2022-09-12T13:22:58.626Z,28.56
2022-09-12T13:25:36.844Z,28.42
2022-09-12T13:28:12.430Z,28.16
2022-09-12T13:30:58.490Z,28.03
2022-09-12T13:33:30.972Z,27.96
2022-09-12T13:36:34.430Z,28.09
2022-09-12T13:39:25.521Z,27.82
2022-09-12T13:42:36.416Z,27.75
2022-09-12T13:45:12.851Z,27.68
2022-09-12T13:47:45.529Z,27.72
2022-09-12T13:50:27.998Z,27.76
2022-09-12T13:53:01.730Z,27.67
2022-09-12T13:55:32.469Z,27.57
2022-09-12T13:58:02.122Z,27.51
2022-09-12T14:00:32.133Z,27.38
2022-09-12T14:03:20.400Z,27.18
2022-09-12T14:05:55.687Z,27.03
2022-09-12T14:08:23.800Z,27.00
2022-09-12T14:10:51.067Z,26.99
2022-09-12T14:13:20.867Z,26.99
2022-09-12T14:15:50.006Z,26.93
2022-09-12T14:18:29.657Z,26.94
2022-09-12T14:21:00.917Z,26.87
2022-09-12T14:23:30.735Z,26.56
2022-09-12T14:26:00.202Z,26.73
2022-09-12T14:28:31.107Z,26.64
2022-09-12T14:31:05.173Z,26.81
2022-09-12T14:33:49.761Z,26.76
2022-09-12T14:36:27.319Z,26.74
2022-09-12T14:38:57.526Z,26.74
2022-09-12T14:41:28.349Z,26.79
2022-09-12T14:43:58.854Z,26.74
2022-09-12T14:46:35.987Z,26.65
2022-09-12T14:49:16.802Z,26.56
2022-09-12T14:51:52.288Z,26.43
2022-09-12T14:54:27.738Z,26.42
2022-09-12T14:56:56.764Z,26.34
2022-09-12T14:59:28.635Z,26.30
2022-09-12T15:02:13.714Z,26.20
2022-09-12T15:04:46.247Z,26.14
2022-09-12T15:07:26.521Z,26.06
2022-09-12T15:09:53.236Z,26.02
2022-09-12T15:12:19.990Z,25.81
2022-09-12T15:14:46.535Z,25.73
2022-09-12T15:17:12.989Z,25.63
2022-09-12T15:19:39.423Z,25.53
2022-09-12T15:22:06.022Z,25.48
2022-09-12T15:24:32.543Z,25.38
2022-09-12T15:26:59.037Z,25.24
2022-09-12T15:29:25.498Z,25.21
2022-09-12T15:31:52.000Z,25.16
2022-09-12T15:34:19.987Z,25.18
2022-09-12T15:36:46.504Z,25.10
2022-09-12T15:39:13.310Z,25.07
2022-09-12T15:41:39.816Z,25.05
2022-09-12T15:44:11.234Z,25.02
2022-09-12T15:46:37.849Z,24.97
2022-09-12T15:49:04.495Z,24.92
2022-09-12T15:51:31.023Z,24.89
2022-09-12T15:53:57.483Z,24.82
2022-09-12T15:56:24.018Z,24.75
2022-09-12T15:58:58.910Z,24.69
2022-09-12T16:01:27.018Z,24.63
2022-09-12T16:03:53.581Z,24.57
2022-09-12T16:06:20.147Z,24.54
2022-09-12T16:08:46.763Z,24.52
2022-09-12T16:11:21.069Z,24.46
2022-09-12T16:13:47.796Z,24.40
2022-09-12T16:16:14.409Z,24.33
2022-09-12T16:18:41.661Z,24.27
2022-09-12T16:21:12.763Z,24.25
2022-09-12T16:23:46.001Z,24.21
2022-09-12T16:26:13.160Z,24.15
2022-09-12T16:28:39.787Z,24.12
2022-09-12T16:31:08.816Z,24.06
2022-09-12T16:33:37.704Z,24.03
2022-09-12T16:36:05.619Z,24.00
2022-09-12T16:38:33.770Z,23.96
2022-09-12T16:41:04.660Z,23.77
2022-09-12T16:43:31.945Z,23.76
2022-09-12T16:46:07.391Z,23.75
2022-09-12T16:48:34.661Z,23.66
2022-09-12T16:51:03.499Z,23.61
2022-09-12T16:53:31.257Z,23.55
2022-09-12T16:55:57.905Z,23.48
2022-09-12T16:58:24.566Z,23.41
2022-09-12T17:01:00.570Z,23.35
2022-09-12T17:03:27.506Z,23.28
2022-09-12T17:05:59.621Z,23.18
2022-09-12T17:08:26.380Z,23.07
2022-09-12T17:10:53.066Z,22.94
2022-09-12T17:13:19.528Z,22.84
2022-09-12T17:15:46.012Z,22.75
2022-09-12T17:18:12.519Z,22.66
2022-09-12T17:20:39.067Z,22.55
2022-09-12T17:23:09.685Z,22.44
2022-09-12T17:25:36.445Z,22.35
2022-09-12T17:28:05.570Z,22.23
2022-09-12T17:30:35.619Z,22.11
2022-09-12T17:33:02.288Z,22.02
2022-09-12T17:35:29.068Z,21.96
2022-09-12T17:37:55.503Z,21.87
2022-09-12T17:40:32.749Z,21.73
2022-09-12T17:43:08.454Z,21.58
2022-09-12T17:45:34.906Z,21.58
2022-09-12T17:48:02.051Z,21.49
2022-09-12T17:50:31.768Z,21.41
2022-09-12T17:52:59.300Z,21.32
2022-09-12T17:55:25.958Z,21.27
2022-09-12T17:57:52.626Z,21.18
2022-09-12T18:00:39.082Z,21.08
2022-09-12T18:03:05.995Z,20.95
2022-09-12T18:05:32.438Z,20.87
2022-09-12T18:07:58.879Z,20.77
2022-09-12T18:10:26.131Z,20.71
2022-09-12T18:12:52.758Z,20.62
2022-09-12T18:15:19.231Z,20.56
2022-09-12T18:17:45.760Z,20.51
2022-09-12T18:20:12.216Z,20.43
2022-09-12T18:22:38.750Z,20.36
2022-09-12T18:25:05.653Z,20.29
2022-09-12T18:27:32.131Z,20.21
2022-09-12T18:30:17.545Z,20.13
2022-09-12T18:32:45.606Z,19.79
2022-09-12T18:35:12.096Z,19.99
2022-09-12T18:37:41.179Z,19.91
2022-09-12T18:40:08.015Z,19.84
2022-09-12T18:42:34.541Z,19.77
2022-09-12T18:45:00.997Z,19.72
2022-09-12T18:47:27.599Z,19.66
2022-09-12T18:49:54.074Z,19.60
2022-09-12T18:52:20.784Z,19.55
2022-09-12T18:54:47.245Z,19.43
2022-09-12T18:57:13.713Z,19.41
2022-09-12T18:59:40.191Z,19.35
2022-09-12T19:02:07.157Z,19.28
2022-09-12T19:04:33.959Z,19.20
2022-09-12T19:07:01.546Z,19.12
2022-09-12T19:09:29.087Z,19.06
2022-09-12T19:11:55.909Z,19.01
2022-09-12T19:14:23.807Z,18.97
2022-09-12T19:16:50.859Z,18.91
2022-09-12T19:19:18.065Z,18.86
2022-09-12T19:21:44.862Z,18.82
2022-09-12T19:24:11.781Z,18.78
2022-09-12T19:26:39.195Z,18.73
2022-09-12T19:29:07.019Z,18.68
2022-09-12T19:31:33.737Z,18.63
2022-09-12T19:34:01.848Z,18.54
2022-09-12T19:36:44.471Z,18.55
2022-09-12T19:39:12.856Z,18.51
2022-09-12T19:41:39.550Z,18.45
2022-09-12T19:44:06.063Z,18.40
2022-09-12T19:46:32.651Z,18.37
2022-09-12T19:48:59.219Z,18.33
2022-09-12T19:51:26.387Z,18.27
2022-09-12T19:53:53.386Z,18.21
2022-09-12T19:56:20.011Z,18.15
2022-09-12T19:58:50.870Z,18.11
2022-09-12T20:01:29.476Z,18.06
2022-09-12T20:03:57.650Z,18.02
2022-09-12T20:06:24.651Z,18.00
2022-09-12T20:08:51.162Z,17.99
2022-09-12T20:11:19.731Z,17.99
2022-09-12T20:13:47.230Z,17.97
2022-09-12T20:16:20.549Z,17.96
2022-09-12T20:18:49.375Z,17.92
2022-09-12T20:21:21.841Z,17.89
2022-09-12T20:23:48.444Z,17.84
2022-09-12T20:26:15.079Z,17.79
2022-09-12T20:28:42.293Z,17.73
2022-09-12T20:31:13.287Z,17.68
2022-09-12T20:33:40.069Z,17.62
2022-09-12T20:36:09.787Z,17.56
2022-09-12T20:38:36.485Z,17.51
2022-09-12T20:41:04.551Z,17.46
2022-09-12T20:43:31.095Z,17.41
2022-09-12T20:45:57.934Z,17.37
2022-09-12T20:48:24.965Z,17.34
2022-09-12T20:50:51.456Z,17.32
2022-09-12T20:53:17.951Z,17.28
2022-09-12T20:55:52.067Z,17.22
2022-09-12T20:58:19.494Z,17.18
2022-09-12T21:00:46.818Z,17.13
2022-09-12T21:03:14.431Z,17.10
2022-09-12T21:05:43.368Z,17.09
2022-09-12T21:08:10.828Z,17.08
2022-09-12T21:10:37.448Z,17.03
2022-09-12T21:13:03.973Z,16.85
2022-09-12T21:15:30.429Z,16.93
2022-09-12T21:17:57.057Z,16.87
2022-09-12T21:20:23.701Z,16.83
2022-09-12T21:22:50.169Z,16.79
2022-09-12T21:25:16.647Z,16.78
2022-09-12T21:27:43.138Z,16.76
2022-09-12T21:30:10.055Z,16.76
2022-09-12T21:32:36.672Z,16.60
2022-09-12T21:35:05.226Z,16.71
2022-09-12T21:37:32.376Z,16.72
2022-09-12T21:39:59.411Z,16.67
2022-09-12T21:42:26.221Z,16.61
2022-09-12T21:44:52.765Z,16.61
2022-09-12T21:47:19.338Z,16.60
2022-09-12T21:49:45.830Z,16.56
2022-09-12T21:52:15.396Z,16.52
2022-09-12T21:54:41.846Z,16.48
2022-09-12T21:57:08.383Z,16.46
2022-09-12T21:59:34.907Z,16.46
2022-09-12T22:02:01.443Z,16.45
2022-09-12T22:04:27.995Z,16.45
2022-09-12T22:06:54.471Z,16.46
2022-09-12T22:09:21.082Z,16.48
2022-09-12T22:11:47.567Z,16.51
2022-09-12T22:14:14.029Z,16.46
2022-09-12T22:16:40.539Z,16.46
2022-09-12T22:19:07.091Z,16.44
2022-09-12T22:21:33.624Z,16.44
2022-09-12T22:24:18.696Z,16.30
2022-09-12T22:26:46.326Z,16.44
2022-09-12T22:29:13.380Z,16.42
2022-09-12T22:31:40.088Z,16.40
2022-09-12T22:34:07.303Z,16.38
2022-09-12T22:36:38.163Z,16.35
2022-09-12T22:39:06.042Z,16.30
2022-09-12T22:41:32.539Z,16.26
2022-09-12T22:43:59.137Z,16.20
2022-09-12T22:46:25.742Z,16.16
2022-09-12T22:48:52.316Z,16.09
2022-09-12T22:51:19.027Z,15.94
2022-09-12T22:53:45.499Z,15.99
2022-09-12T22:56:11.991Z,15.94
2022-09-12T22:58:38.621Z,15.90
2022-09-12T23:01:06.449Z,15.77
2022-09-12T23:03:33.792Z,15.73
2022-09-12T23:06:00.349Z,15.86
2022-09-12T23:08:29.515Z,15.85
2022-09-12T23:11:04.539Z,15.84
2022-09-12T23:13:32.202Z,15.74
2022-09-12T23:16:00.239Z,15.85
2022-09-12T23:18:27.086Z,15.82
2022-09-12T23:21:08.694Z,15.79
2022-09-12T23:23:35.462Z,15.78
2022-09-12T23:26:02.807Z,15.78
2022-09-12T23:28:29.457Z,15.74
2022-09-12T23:30:56.837Z,15.69
2022-09-12T23:33:23.666Z,15.68
2022-09-12T23:35:50.149Z,15.65
2022-09-12T23:38:16.629Z,15.60
2022-09-12T23:40:43.098Z,15.62
2022-09-12T23:43:09.573Z,15.56
2022-09-12T23:45:36.060Z,15.51
2022-09-12T23:48:04.337Z,15.49
2022-09-12T23:50:30.825Z,15.45
2022-09-12T23:52:57.307Z,15.42
2022-09-12T23:55:24.501Z,15.39
2022-09-12T23:57:50.967Z,15.36
